createdAt,value
2023-04-17T00:00:15.744Z,21.70
2023-04-17T00:01:15.717Z,23.40
2023-04-17T00:02:15.717Z,22.80
2023-04-17T00:03:15.702Z,20.90
2023-04-17T00:04:15.773Z,24.70
2023-04-17T00:05:15.622Z,22.70
2023-04-17T00:06:15.565Z,23.50
2023-04-17T00:07:15.537Z,22.50
2023-04-17T00:08:15.508Z,23.40
2023-04-17T00:09:15.480Z,22.40
2023-04-17T00:10:15.450Z,22.70
2023-04-17T00:11:17.340Z,21.40
2023-04-17T00:12:15.392Z,21.60
2023-04-17T00:13:15.363Z,23.30
2023-04-17T00:14:15.336Z,20.90
2023-04-17T00:15:15.301Z,22.50
2023-04-17T00:16:15.373Z,21.90
2023-04-17T00:17:15.372Z,23.70
2023-04-17T00:18:15.224Z,22.20
2023-04-17T00:19:15.210Z,21.30
2023-04-17T00:20:15.252Z,22.00
2023-04-17T00:21:15.154Z,21.20
2023-04-17T00:22:15.098Z,20.40
2023-04-17T00:23:15.074Z,22.50
2023-04-17T00:24:15.053Z,23.10
2023-04-17T00:25:15.081Z,22.30
2023-04-17T00:26:14.980Z,23.50
2023-04-17T00:27:14.952Z,22.60
2023-04-17T00:28:14.919Z,23.40
2023-04-17T00:29:14.892Z,23.00
2023-04-17T00:30:14.863Z,22.80
2023-04-17T00:31:14.856Z,23.00
2023-04-17T00:32:14.976Z,25.00
2023-04-17T00:33:14.783Z,23.90
2023-04-17T00:34:14.747Z,24.50
2023-04-17T00:35:14.721Z,24.20
2023-04-17T00:36:14.705Z,25.00
2023-04-17T00:37:14.659Z,25.10
2023-04-17T00:38:14.628Z,25.10
2023-04-17T00:39:14.848Z,23.30
2023-04-17T00:40:14.579Z,24.40
2023-04-17T00:41:14.545Z,23.00
2023-04-17T00:42:14.510Z,22.10
2023-04-17T00:43:14.480Z,21.40
2023-04-17T00:44:14.453Z,22.20
2023-04-17T00:45:14.432Z,20.90
2023-04-17T00:46:14.506Z,22.80
2023-04-17T00:47:14.365Z,23.40
2023-04-17T00:48:14.338Z,23.30
2023-04-17T00:49:14.306Z,24.10
2023-04-17T00:50:14.281Z,24.10
2023-04-17T00:51:14.247Z,25.50
2023-04-17T00:52:14.245Z,24.50
2023-04-17T00:53:14.190Z,24.60
2023-04-17T00:54:14.159Z,24.20
2023-04-17T00:55:14.130Z,24.90
2023-04-17T00:56:14.103Z,26.10
2023-04-17T00:57:14.076Z,25.90
2023-04-17T00:58:14.044Z,25.20
2023-04-17T00:59:14.219Z,25.30
2023-04-17T01:00:13.983Z,24.40
2023-04-17T01:01:13.975Z,24.10
2023-04-17T01:02:13.977Z,26.30
2023-04-17T01:03:14.028Z,25.60
2023-04-17T01:04:14.090Z,24.50
2023-04-17T01:05:13.833Z,23.40
2023-04-17T01:06:13.809Z,26.50
2023-04-17T01:07:13.776Z,27.00
2023-04-17T01:08:13.772Z,26.60
2023-04-17T01:09:13.996Z,24.20
2023-04-17T01:10:13.691Z,24.90
2023-04-17T01:11:13.655Z,26.70
2023-04-17T01:12:13.623Z,25.00
2023-04-17T01:13:13.603Z,27.10
2023-04-17T01:14:13.571Z,24.60
2023-04-17T01:15:13.545Z,24.40
2023-04-17T01:16:13.567Z,24.50
2023-04-17T01:17:13.510Z,26.20
2023-04-17T01:18:13.455Z,25.70
2023-04-17T01:19:13.610Z,26.00
2023-04-17T01:20:13.389Z,23.40
2023-04-17T01:21:13.360Z,24.00
2023-04-17T01:22:13.332Z,24.90
2023-04-17T01:23:13.313Z,24.50
2023-04-17T01:24:13.300Z,26.90
2023-04-17T01:25:13.238Z,26.60
2023-04-17T01:26:13.212Z,26.50
2023-04-17T01:27:13.181Z,26.40
2023-04-17T01:28:13.157Z,29.20
2023-04-17T01:29:13.398Z,24.70
2023-04-17T01:30:13.095Z,27.70
2023-04-17T01:31:13.091Z,26.00
2023-04-17T01:32:13.031Z,29.70
2023-04-17T01:33:13.024Z,27.90
2023-04-17T01:34:13.023Z,26.40
2023-04-17T01:35:12.953Z,26.50
2023-04-17T01:36:12.932Z,26.40
2023-04-17T01:37:12.902Z,26.10
2023-04-17T01:38:12.858Z,27.60
2023-04-17T01:39:13.029Z,27.00
2023-04-17T01:40:12.827Z,26.50
2023-04-17T01:41:12.767Z,25.10
2023-04-17T01:42:12.765Z,26.20
2023-04-17T01:43:12.710Z,22.90
2023-04-17T01:44:12.681Z,23.40
2023-04-17T01:45:12.678Z,23.00
2023-04-17T01:46:12.676Z,21.30
2023-04-17T01:47:12.593Z,21.10
2023-04-17T01:48:12.568Z,22.50
2023-04-17T01:49:12.742Z,20.30
2023-04-17T01:50:12.515Z,21.60
2023-04-17T01:51:12.475Z,17.90
2023-04-17T01:52:12.445Z,17.50
2023-04-17T01:53:12.414Z,18.20
2023-04-17T01:54:12.393Z,18.10
2023-04-17T01:55:12.366Z,19.20
2023-04-17T01:56:12.397Z,20.50
2023-04-17T01:57:12.301Z,20.90
2023-04-17T01:58:12.276Z,22.20
2023-04-17T01:59:12.834Z,21.90
2023-04-17T02:00:12.218Z,21.90
2023-04-17T02:01:12.216Z,22.70
2023-04-17T02:02:12.243Z,22.70
2023-04-17T02:03:12.271Z,22.90
2023-04-17T02:04:12.263Z,26.30
2023-04-17T02:05:12.072Z,22.90
2023-04-17T02:06:12.039Z,22.70
2023-04-17T02:07:12.007Z,25.80
2023-04-17T02:08:11.976Z,24.10
2023-04-17T02:09:12.105Z,22.80
2023-04-17T02:10:11.922Z,24.40
2023-04-17T02:11:11.892Z,24.90
2023-04-17T02:12:11.886Z,23.00
2023-04-17T02:13:11.832Z,24.50
2023-04-17T02:14:11.805Z,24.90
2023-04-17T02:15:11.775Z,25.00
2023-04-17T02:16:11.782Z,25.80
2023-04-17T02:17:11.717Z,25.60
2023-04-17T02:18:11.689Z,24.90
2023-04-17T02:19:11.811Z,24.40
2023-04-17T02:20:11.630Z,24.30
2023-04-17T02:21:11.597Z,26.40
2023-04-17T02:22:11.573Z,23.20
2023-04-17T02:23:11.546Z,25.10
2023-04-17T02:24:11.512Z,25.40
2023-04-17T02:25:11.484Z,25.20
2023-04-17T02:26:11.454Z,25.50
2023-04-17T02:27:11.425Z,27.10
2023-04-17T02:28:11.416Z,26.30
2023-04-17T02:29:11.673Z,24.10
2023-04-17T02:30:11.337Z,27.70
2023-04-17T02:31:11.341Z,27.10
2023-04-17T02:32:11.283Z,28.40
2023-04-17T02:33:11.249Z,28.40
2023-04-17T02:34:11.239Z,26.70
2023-04-17T02:35:11.193Z,28.50
2023-04-17T02:36:11.408Z,26.40
2023-04-17T02:37:11.138Z,27.40
2023-04-17T02:38:11.107Z,28.60
2023-04-17T02:39:11.420Z,27.20
2023-04-17T02:40:11.043Z,27.70
2023-04-17T02:41:11.013Z,26.90
2023-04-17T02:42:10.985Z,27.30
2023-04-17T02:43:10.953Z,29.90
2023-04-17T02:44:10.944Z,28.90
2023-04-17T02:45:10.910Z,28.10
2023-04-17T02:46:10.895Z,29.00
2023-04-17T02:47:10.837Z,26.30
2023-04-17T02:48:10.809Z,29.40
2023-04-17T02:49:10.997Z,28.40
2023-04-17T02:50:10.753Z,28.00
2023-04-17T02:51:10.723Z,27.90
2023-04-17T02:52:10.696Z,29.50
2023-04-17T02:53:10.664Z,27.50
2023-04-17T02:54:10.634Z,29.40
2023-04-17T02:55:10.603Z,29.00
2023-04-17T02:56:10.574Z,29.90
2023-04-17T02:57:10.548Z,29.40
2023-04-17T02:58:10.519Z,30.00
2023-04-17T02:59:10.870Z,29.80
2023-04-17T03:00:10.485Z,29.40
2023-04-17T03:01:10.477Z,30.40
2023-04-17T03:02:10.442Z,28.10
2023-04-17T03:03:10.498Z,27.80
2023-04-17T03:04:10.363Z,27.40
2023-04-17T03:05:10.311Z,28.30
2023-04-17T03:06:10.280Z,27.50
2023-04-17T03:07:10.259Z,27.30
2023-04-17T03:08:10.231Z,27.90
2023-04-17T03:09:10.345Z,28.00
2023-04-17T03:10:10.169Z,28.70
2023-04-17T03:11:10.146Z,25.80
2023-04-17T03:12:10.107Z,26.20
2023-04-17T03:13:10.071Z,27.20
2023-04-17T03:14:10.048Z,27.40
2023-04-17T03:15:10.027Z,26.70
2023-04-17T03:16:10.032Z,26.30
2023-04-17T03:17:09.976Z,25.80
2023-04-17T03:18:09.982Z,26.10
2023-04-17T03:19:10.077Z,26.40
2023-04-17T03:20:09.876Z,26.90
2023-04-17T03:21:09.866Z,24.70
2023-04-17T03:22:11.380Z,24.10
2023-04-17T03:23:09.787Z,23.00
2023-04-17T03:24:09.753Z,20.70
2023-04-17T03:25:09.726Z,17.70
2023-04-17T03:26:09.695Z,18.00
2023-04-17T03:27:09.675Z,19.10
2023-04-17T03:28:09.634Z,18.90
2023-04-17T03:29:09.822Z,17.30
2023-04-17T03:30:09.580Z,16.30
2023-04-17T03:31:09.545Z,16.10
2023-04-17T03:32:09.641Z,15.00
2023-04-17T03:33:09.487Z,14.20
2023-04-17T03:34:09.481Z,15.70
2023-04-17T03:35:09.434Z,15.90
2023-04-17T03:36:09.400Z,13.90
2023-04-17T03:37:09.371Z,14.60
2023-04-17T03:38:09.349Z,14.30
2023-04-17T03:39:09.393Z,15.30
2023-04-17T03:40:09.288Z,16.10
2023-04-17T03:41:09.253Z,14.30
2023-04-17T03:42:09.238Z,14.80
2023-04-17T03:43:09.194Z,13.80
2023-04-17T03:44:09.193Z,14.00
2023-04-17T03:45:09.146Z,14.40
2023-04-17T03:46:09.140Z,14.10
2023-04-17T03:47:09.078Z,15.20
2023-04-17T03:48:09.106Z,14.40
2023-04-17T03:49:09.030Z,13.00
2023-04-17T03:50:09.002Z,13.40
2023-04-17T03:51:08.965Z,15.30
2023-04-17T03:52:08.932Z,14.30
2023-04-17T03:53:08.910Z,14.00
2023-04-17T03:54:08.879Z,12.90
2023-04-17T03:55:08.843Z,13.80
2023-04-17T03:56:08.809Z,15.50
2023-04-17T03:57:08.788Z,13.90
2023-04-17T03:58:08.753Z,13.40
2023-04-17T03:59:08.727Z,12.50
2023-04-17T04:00:08.694Z,12.50
2023-04-17T04:01:08.662Z,13.60
2023-04-17T04:02:08.724Z,14.40
2023-04-17T04:03:08.711Z,13.60
2023-04-17T04:04:08.805Z,13.10
2023-04-17T04:05:08.565Z,13.90
2023-04-17T04:06:08.517Z,13.00
2023-04-17T04:07:08.489Z,13.80
2023-04-17T04:08:08.467Z,15.10
2023-04-17T04:09:08.425Z,14.50
2023-04-17T04:10:08.398Z,14.80
2023-04-17T04:11:08.363Z,15.30
2023-04-17T04:12:08.341Z,14.40
2023-04-17T04:13:08.309Z,15.20
2023-04-17T04:14:08.279Z,13.90
2023-04-17T04:15:08.254Z,16.30
2023-04-17T04:16:08.317Z,13.60
2023-04-17T04:17:08.291Z,14.20
2023-04-17T04:18:08.196Z,13.60
2023-04-17T04:19:08.134Z,12.90
2023-04-17T04:20:08.128Z,14.10
2023-04-17T04:21:08.074Z,14.20
2023-04-17T04:22:08.052Z,14.20
2023-04-17T04:23:08.012Z,13.90
2023-04-17T04:24:07.988Z,12.00
2023-04-17T04:25:07.964Z,13.30
2023-04-17T04:26:07.924Z,13.70
2023-04-17T04:27:07.895Z,13.40
2023-04-17T04:28:07.878Z,12.10
2023-04-17T04:29:07.839Z,11.20
2023-04-17T04:30:07.815Z,12.40
2023-04-17T04:31:07.841Z,13.50
2023-04-17T04:32:07.752Z,13.20
2023-04-17T04:33:07.773Z,12.90
2023-04-17T04:34:07.697Z,12.60
2023-04-17T04:35:07.676Z,12.50
2023-04-17T04:36:07.664Z,13.10
2023-04-17T04:37:07.611Z,12.30
2023-04-17T04:38:08.580Z,12.70
2023-04-17T04:39:07.543Z,12.70
2023-04-17T04:40:07.530Z,16.70
2023-04-17T04:41:07.487Z,12.40
2023-04-17T04:42:07.460Z,13.70
2023-04-17T04:43:07.429Z,14.10
2023-04-17T04:44:07.401Z,13.80
2023-04-17T04:45:07.389Z,12.70
2023-04-17T04:46:07.343Z,13.40
2023-04-17T04:47:07.347Z,13.30
2023-04-17T04:48:07.342Z,13.50
2023-04-17T04:49:07.253Z,13.30
2023-04-17T04:50:07.225Z,13.90
2023-04-17T04:51:07.205Z,13.20
2023-04-17T04:52:07.189Z,12.70
2023-04-17T04:53:07.137Z,12.70
2023-04-17T04:54:07.116Z,13.90
2023-04-17T04:55:07.077Z,12.10
2023-04-17T04:56:07.050Z,13.60
2023-04-17T04:57:07.019Z,12.30
2023-04-17T04:58:06.993Z,12.50
2023-04-17T04:59:06.960Z,13.20
2023-04-17T05:00:06.945Z,12.90
2023-04-17T05:01:07.078Z,13.70
2023-04-17T05:02:06.934Z,13.50
2023-04-17T05:03:06.977Z,14.90
2023-04-17T05:04:06.994Z,14.70
2023-04-17T05:05:06.852Z,15.30
2023-04-17T05:06:06.763Z,13.10
2023-04-17T05:07:06.729Z,12.50
2023-04-17T05:08:06.919Z,13.20
2023-04-17T05:09:06.991Z,15.00
2023-04-17T05:10:06.639Z,13.70
2023-04-17T05:11:06.623Z,13.80
2023-04-17T05:12:06.584Z,14.40
2023-04-17T05:13:06.556Z,14.40
2023-04-17T05:14:06.526Z,14.90
2023-04-17T05:15:06.498Z,13.40
2023-04-17T05:16:06.523Z,14.00
2023-04-17T05:17:06.442Z,13.30
2023-04-17T05:18:06.443Z,12.90
2023-04-17T05:19:06.395Z,12.00
2023-04-17T05:20:06.352Z,13.20
2023-04-17T05:21:06.329Z,12.90
2023-04-17T05:22:06.295Z,12.40
2023-04-17T05:23:06.264Z,12.20
2023-04-17T05:24:06.256Z,14.00
2023-04-17T05:25:06.204Z,12.40
2023-04-17T05:26:06.183Z,12.70
2023-04-17T05:27:06.160Z,11.70
2023-04-17T05:28:06.119Z,12.60
2023-04-17T05:29:06.101Z,11.20
2023-04-17T05:30:06.086Z,12.60
2023-04-17T05:31:06.127Z,12.00
2023-04-17T05:32:06.044Z,11.50
2023-04-17T05:33:06.066Z,12.20
2023-04-17T05:34:05.946Z,11.40
2023-04-17T05:35:05.928Z,11.60
2023-04-17T05:36:05.885Z,11.50
2023-04-17T05:37:05.859Z,8.80
2023-04-17T05:38:05.839Z,9.90
2023-04-17T05:39:05.801Z,10.60
2023-04-17T05:40:05.788Z,9.90
2023-04-17T05:41:05.741Z,9.40
2023-04-17T05:42:05.717Z,10.30
2023-04-17T05:43:05.684Z,8.90
2023-04-17T05:44:05.652Z,8.80
2023-04-17T05:45:05.627Z,8.70
2023-04-17T05:46:05.643Z,6.90
2023-04-17T05:47:05.571Z,7.80
2023-04-17T05:48:05.556Z,7.90
2023-04-17T05:49:05.513Z,7.40
2023-04-17T05:50:05.487Z,6.20
2023-04-17T05:51:05.448Z,6.60
2023-04-17T05:52:05.425Z,6.70
2023-04-17T05:53:05.391Z,6.50
2023-04-17T05:54:05.366Z,6.50
2023-04-17T05:55:05.329Z,6.90
2023-04-17T05:56:05.326Z,6.60
2023-04-17T05:57:05.282Z,7.00
2023-04-17T05:58:20.518Z,6.90
2023-04-17T05:59:05.221Z,6.10
2023-04-17T06:00:05.219Z,6.70
2023-04-17T06:01:05.162Z,7.40
2023-04-17T06:02:05.206Z,7.00
2023-04-17T06:03:05.364Z,6.80
2023-04-17T06:04:05.269Z,7.00
2023-04-17T06:05:05.227Z,6.80
2023-04-17T06:06:05.012Z,6.40
2023-04-17T06:07:04.984Z,5.90
2023-04-17T06:08:04.954Z,5.00
2023-04-17T06:09:04.932Z,6.50
2023-04-17T06:10:04.899Z,4.80
2023-04-17T06:11:04.883Z,4.40
2023-04-17T06:12:05.012Z,5.90
2023-04-17T06:13:04.818Z,4.40
2023-04-17T06:14:04.786Z,5.10
2023-04-17T06:15:04.752Z,4.60
2023-04-17T06:16:04.723Z,4.80
2023-04-17T06:17:04.752Z,4.20
2023-04-17T06:18:04.720Z,3.50
2023-04-17T06:19:04.637Z,3.80
2023-04-17T06:20:04.607Z,4.60
2023-04-17T06:21:04.588Z,4.20
2023-04-17T06:22:04.557Z,5.80
2023-04-17T06:23:04.521Z,4.40
2023-04-17T06:24:04.502Z,4.20
2023-04-17T06:25:04.465Z,3.80
2023-04-17T06:26:04.451Z,3.70
2023-04-17T06:27:04.412Z,4.40
2023-04-17T06:28:04.407Z,3.50
2023-04-17T06:29:04.359Z,3.90
2023-04-17T06:30:04.325Z,3.60
2023-04-17T06:31:04.327Z,4.30
2023-04-17T06:32:04.266Z,3.40
2023-04-17T06:33:04.307Z,4.00
2023-04-17T06:34:04.216Z,3.50
2023-04-17T06:35:04.186Z,4.70
2023-04-17T06:36:04.153Z,4.40
2023-04-17T06:37:04.122Z,3.50
2023-04-17T06:38:04.090Z,3.80
2023-04-17T06:39:04.061Z,3.60
2023-04-17T06:40:04.032Z,3.80
2023-04-17T06:41:04.013Z,4.70
2023-04-17T06:42:03.990Z,3.40
2023-04-17T06:43:03.946Z,3.70
2023-04-17T06:44:05.255Z,4.00
2023-04-17T06:45:03.889Z,3.20
2023-04-17T06:46:03.925Z,3.30
2023-04-17T06:47:03.838Z,3.10
2023-04-17T06:48:03.826Z,3.80
2023-04-17T06:49:03.776Z,3.30
2023-04-17T06:50:03.756Z,4.30
2023-04-17T06:51:03.716Z,4.50
2023-04-17T06:52:03.689Z,3.10
2023-04-17T06:53:03.669Z,3.10
2023-04-17T06:54:03.638Z,4.10
2023-04-17T06:55:03.609Z,4.40
2023-04-17T06:56:03.575Z,4.30
2023-04-17T06:57:03.562Z,4.20
2023-04-17T06:58:03.522Z,3.60
2023-04-17T06:59:03.489Z,5.10
2023-04-17T07:00:03.586Z,3.70
2023-04-17T07:01:03.448Z,3.60
2023-04-17T07:02:03.487Z,4.10
2023-04-17T07:03:03.441Z,3.90
2023-04-17T07:04:03.404Z,4.80
2023-04-17T07:05:03.320Z,3.70
2023-04-17T07:06:03.296Z,3.20
2023-04-17T07:07:03.261Z,3.10
2023-04-17T07:08:03.244Z,3.30
2023-04-17T07:09:03.206Z,3.30
2023-04-17T07:10:03.179Z,3.50
2023-04-17T07:11:03.151Z,3.30
2023-04-17T07:12:03.138Z,3.30
2023-04-17T07:13:03.088Z,3.20
2023-04-17T07:14:03.079Z,4.20
2023-04-17T07:15:03.092Z,3.60
2023-04-17T07:16:03.165Z,3.50
2023-04-17T07:17:02.972Z,4.20
2023-04-17T07:18:03.021Z,3.50
2023-04-17T07:19:02.923Z,3.90
2023-04-17T07:20:02.902Z,3.70
2023-04-17T07:21:02.862Z,3.90
2023-04-17T07:22:02.859Z,4.00
2023-04-17T07:23:02.802Z,4.50
2023-04-17T07:24:02.779Z,4.00
2023-04-17T07:25:02.763Z,3.40
2023-04-17T07:26:02.718Z,4.00
2023-04-17T07:27:02.688Z,4.40
2023-04-17T07:28:04.503Z,3.90
2023-04-17T07:29:02.632Z,3.40
2023-04-17T07:30:02.600Z,3.70
2023-04-17T07:31:02.587Z,4.50
2023-04-17T07:32:02.809Z,3.50
2023-04-17T07:33:02.539Z,3.70
2023-04-17T07:34:02.497Z,3.60
2023-04-17T07:35:02.465Z,3.60
2023-04-17T07:36:02.430Z,4.50
2023-04-17T07:37:02.406Z,3.80
2023-04-17T07:38:02.383Z,4.40
2023-04-17T07:39:02.354Z,3.50
2023-04-17T07:40:02.330Z,3.60
2023-04-17T07:41:02.287Z,3.60
2023-04-17T07:42:02.260Z,4.20
2023-04-17T07:43:02.241Z,4.00
2023-04-17T07:44:02.203Z,3.60
2023-04-17T07:45:02.172Z,3.60
2023-04-17T07:46:02.156Z,4.00
2023-04-17T07:47:02.249Z,5.00
2023-04-17T07:48:02.144Z,3.60
2023-04-17T07:49:02.066Z,4.60
2023-04-17T07:50:02.109Z,4.00
2023-04-17T07:51:02.011Z,4.50
2023-04-17T07:52:02.004Z,5.50
2023-04-17T07:53:01.960Z,4.40
2023-04-17T07:54:01.923Z,3.80
2023-04-17T07:55:01.893Z,4.10
2023-04-17T07:56:01.879Z,4.70
2023-04-17T07:57:01.832Z,4.70
2023-04-17T07:58:01.804Z,4.70
2023-04-17T07:59:01.793Z,4.60
2023-04-17T08:00:01.743Z,4.00
2023-04-17T08:01:01.721Z,5.10
2023-04-17T08:02:01.822Z,4.80
2023-04-17T08:03:01.933Z,3.90
2023-04-17T08:04:02.278Z,4.10
2023-04-17T08:05:01.823Z,4.30
2023-04-17T08:06:01.666Z,4.30
2023-04-17T08:07:01.550Z,4.40
2023-04-17T08:08:01.515Z,3.60
2023-04-17T08:09:01.490Z,3.50
2023-04-17T08:10:01.465Z,3.80
2023-04-17T08:11:01.429Z,4.60
2023-04-17T08:12:01.405Z,6.00
2023-04-17T08:13:01.380Z,4.10
2023-04-17T08:14:01.348Z,4.00
2023-04-17T08:15:01.318Z,4.50
2023-04-17T08:16:01.291Z,4.30
2023-04-17T08:17:01.309Z,3.70
2023-04-17T08:18:01.296Z,3.50
2023-04-17T08:19:01.211Z,3.30
2023-04-17T08:20:01.200Z,3.80
2023-04-17T08:21:01.156Z,4.20
2023-04-17T08:22:01.122Z,3.90
2023-04-17T08:23:01.104Z,4.00
2023-04-17T08:24:01.063Z,4.50
2023-04-17T08:25:01.041Z,4.50
2023-04-17T08:26:01.009Z,5.40
2023-04-17T08:27:00.983Z,4.30
2023-04-17T08:28:00.954Z,4.80
2023-04-17T08:29:00.931Z,5.40
2023-04-17T08:30:00.913Z,4.90
2023-04-17T08:31:00.904Z,5.50
2023-04-17T08:33:00.878Z,5.40
2023-04-17T08:34:13.068Z,6.90
2023-04-17T08:35:00.765Z,5.30
2023-04-17T08:36:02.226Z,5.10
2023-04-17T08:37:00.707Z,5.40
2023-04-17T08:38:00.683Z,4.90
2023-04-17T08:39:00.655Z,4.80
2023-04-17T08:40:00.633Z,4.90
2023-04-17T08:41:00.605Z,4.80
2023-04-17T08:42:00.579Z,5.50
2023-04-17T08:43:00.545Z,5.00
2023-04-17T08:44:00.522Z,5.50
2023-04-17T08:45:00.490Z,5.10
2023-04-17T08:46:00.499Z,5.00
2023-04-17T08:47:00.457Z,5.30
2023-04-17T08:48:00.445Z,5.00
2023-04-17T08:49:00.382Z,5.30
2023-04-17T08:50:00.350Z,6.00
2023-04-17T08:51:00.330Z,5.70
2023-04-17T08:52:00.316Z,6.40
2023-04-17T08:53:00.272Z,5.10
2023-04-17T08:54:00.243Z,4.50
2023-04-17T08:55:00.216Z,5.00
2023-04-17T08:56:02.294Z,4.80
2023-04-17T08:57:00.162Z,4.60
2023-04-17T08:58:00.154Z,4.40
2023-04-17T08:59:00.117Z,4.50
2023-04-17T09:00:00.137Z,5.40
2023-04-17T09:01:00.054Z,4.80
2023-04-17T09:02:00.159Z,4.50
2023-04-17T09:03:00.125Z,4.80
2023-04-17T09:04:00.195Z,5.00
2023-04-17T09:05:00.232Z,4.40
2023-04-17T09:05:59.916Z,4.20
2023-04-17T09:06:59.891Z,4.90
2023-04-17T09:07:59.880Z,4.30
2023-04-17T09:08:59.840Z,5.10
2023-04-17T09:09:59.810Z,4.30
2023-04-17T09:10:59.780Z,4.60
2023-04-17T09:11:59.752Z,4.40
2023-04-17T09:12:59.753Z,5.30
2023-04-17T09:13:59.703Z,4.40
2023-04-17T09:14:59.671Z,4.90
2023-04-17T09:15:59.688Z,4.90
2023-04-17T09:16:59.613Z,4.60
2023-04-17T09:17:59.608Z,5.50
2023-04-17T09:18:59.562Z,4.40
2023-04-17T09:19:59.535Z,4.70
2023-04-17T09:20:59.509Z,5.30
2023-04-17T09:21:59.483Z,6.00
2023-04-17T09:22:59.456Z,4.50
2023-04-17T09:23:59.445Z,5.00
2023-04-17T09:24:59.399Z,4.10
2023-04-17T09:25:59.374Z,5.40
2023-04-17T09:26:59.363Z,4.30
2023-04-17T09:27:59.326Z,4.40
2023-04-17T09:28:59.297Z,4.70
2023-04-17T09:29:59.276Z,4.90
2023-04-17T09:30:59.267Z,5.20
2023-04-17T09:31:59.231Z,4.20
2023-04-17T09:32:59.206Z,4.30
2023-04-17T09:33:59.198Z,4.80
2023-04-17T09:34:59.136Z,5.00
2023-04-17T09:35:59.123Z,4.30
2023-04-17T09:36:59.081Z,5.10
2023-04-17T09:37:59.065Z,5.10
2023-04-17T09:38:59.031Z,4.30
2023-04-17T09:39:59.021Z,4.70
2023-04-17T09:40:58.976Z,4.60
2023-04-17T09:42:00.043Z,4.80
2023-04-17T09:42:58.928Z,4.40
2023-04-17T09:43:58.894Z,4.90
2023-04-17T09:44:58.864Z,4.70
2023-04-17T09:45:58.842Z,4.70
2023-04-17T09:46:59.013Z,5.70
2023-04-17T09:47:58.802Z,4.30
2023-04-17T09:48:58.759Z,4.60
2023-04-17T09:49:58.753Z,4.30
2023-04-17T09:50:58.725Z,4.70
2023-04-17T09:51:58.696Z,4.80
2023-04-17T09:52:58.691Z,4.30
2023-04-17T09:53:58.630Z,4.30
2023-04-17T09:54:58.620Z,4.30
2023-04-17T09:55:58.627Z,4.60
2023-04-17T09:56:58.548Z,6.10
2023-04-17T09:57:58.524Z,4.60
2023-04-17T09:58:58.490Z,5.50
2023-04-17T09:59:58.462Z,4.50
2023-04-17T10:00:58.463Z,4.80
2023-04-17T10:01:58.467Z,4.80
2023-04-17T10:02:58.530Z,5.00
2023-04-17T10:03:58.615Z,5.00
2023-04-17T10:04:58.345Z,6.40
2023-04-17T10:05:58.305Z,4.80
2023-04-17T10:06:58.277Z,4.60
2023-04-17T10:07:58.253Z,4.60
2023-04-17T10:08:58.228Z,5.30
2023-04-17T10:09:58.200Z,4.60
2023-04-17T10:10:58.171Z,4.40
2023-04-17T10:11:58.188Z,4.20
2023-04-17T10:12:58.114Z,5.30
2023-04-17T10:13:58.096Z,4.40
2023-04-17T10:14:58.064Z,4.50
2023-04-17T10:15:58.111Z,4.60
2023-04-17T10:16:58.042Z,4.40
2023-04-17T10:17:58.031Z,4.10
2023-04-17T10:18:57.963Z,3.70
2023-04-17T10:19:57.934Z,3.70
2023-04-17T10:20:57.905Z,3.70
2023-04-17T10:21:57.877Z,3.70
2023-04-17T10:22:57.849Z,3.90
2023-04-17T10:23:57.822Z,3.70
2023-04-17T10:24:57.796Z,3.70
2023-04-17T10:25:57.770Z,3.70
2023-04-17T10:26:57.740Z,3.50
2023-04-17T10:27:57.734Z,3.50
2023-04-17T10:28:57.742Z,3.40
2023-04-17T10:29:57.668Z,3.50
2023-04-17T10:30:57.644Z,3.20
2023-04-17T10:31:57.635Z,4.00
2023-04-17T10:32:57.660Z,3.40
2023-04-17T10:33:57.560Z,3.20
2023-04-17T10:34:57.527Z,3.00
2023-04-17T10:35:57.505Z,3.30
2023-04-17T10:36:57.475Z,3.40
2023-04-17T10:37:57.454Z,3.20
2023-04-17T10:38:57.421Z,3.40
2023-04-17T10:39:57.398Z,3.50
2023-04-17T10:40:58.440Z,3.20
2023-04-17T10:41:57.344Z,3.10
2023-04-17T10:42:57.322Z,3.20
2023-04-17T10:43:57.346Z,3.10
2023-04-17T10:44:57.264Z,3.00
2023-04-17T10:45:57.321Z,3.40
2023-04-17T10:46:57.212Z,4.70
2023-04-17T10:47:57.200Z,2.90
2023-04-17T10:48:57.208Z,3.40
2023-04-17T10:49:57.141Z,3.60
2023-04-17T10:50:57.122Z,3.20
2023-04-17T10:51:57.095Z,3.00
2023-04-17T10:52:57.054Z,3.20
2023-04-17T10:53:57.028Z,3.30
2023-04-17T10:54:57.002Z,3.00
2023-04-17T10:55:56.976Z,3.80
2023-04-17T10:56:56.950Z,3.10
2023-04-17T10:57:56.943Z,3.10
2023-04-17T10:58:56.904Z,3.10
2023-04-17T10:59:56.904Z,3.40
2023-04-17T11:00:56.908Z,3.10
2023-04-17T11:01:56.958Z,3.50
2023-04-17T11:02:56.855Z,2.80
2023-04-17T11:03:56.770Z,3.40
2023-04-17T11:04:56.831Z,3.90
2023-04-17T11:05:56.735Z,2.80
2023-04-17T11:06:56.686Z,3.00
2023-04-17T11:07:56.667Z,3.00
2023-04-17T11:08:57.369Z,2.80
2023-04-17T11:09:56.611Z,2.50
2023-04-17T11:10:56.587Z,3.00
2023-04-17T11:11:56.559Z,2.90
2023-04-17T11:12:56.549Z,3.00
2023-04-17T11:13:56.504Z,2.90
2023-04-17T11:14:56.487Z,3.10
2023-04-17T11:15:56.572Z,3.00
2023-04-17T11:16:56.517Z,2.90
2023-04-17T11:17:56.481Z,3.40
2023-04-17T11:18:56.376Z,2.80
2023-04-17T11:19:56.357Z,2.60
2023-04-17T11:20:56.325Z,3.20
2023-04-17T11:21:56.301Z,3.00
2023-04-17T11:22:56.283Z,3.30
2023-04-17T11:23:56.254Z,3.30
2023-04-17T11:24:56.290Z,3.20
2023-04-17T11:25:56.203Z,2.90
2023-04-17T11:26:56.193Z,2.90
2023-04-17T11:27:56.149Z,3.50
2023-04-17T11:28:56.117Z,3.10
2023-04-17T11:29:56.095Z,3.10
2023-04-17T11:30:56.100Z,3.40
2023-04-17T11:31:56.125Z,3.20
2023-04-17T11:32:56.113Z,3.30
2023-04-17T11:33:55.995Z,2.90
2023-04-17T11:34:55.970Z,3.00
2023-04-17T11:35:55.945Z,2.80
2023-04-17T11:36:55.924Z,2.80
2023-04-17T11:37:55.896Z,3.20
2023-04-17T11:38:55.865Z,2.70
2023-04-17T11:39:55.851Z,2.60
2023-04-17T11:40:55.838Z,3.40
2023-04-17T11:41:55.806Z,2.80
2023-04-17T11:42:55.768Z,2.70
2023-04-17T11:43:55.735Z,2.70
2023-04-17T11:44:55.712Z,2.70
2023-04-17T11:45:55.714Z,2.50
2023-04-17T11:46:55.658Z,2.70
2023-04-17T11:47:55.686Z,2.50
2023-04-17T11:48:55.614Z,2.50
2023-04-17T11:49:55.586Z,2.80
2023-04-17T11:50:55.562Z,2.60
2023-04-17T11:51:55.561Z,2.80
2023-04-17T11:52:55.508Z,2.80
2023-04-17T11:53:55.485Z,2.80
2023-04-17T11:54:55.462Z,2.90
2023-04-17T11:55:55.433Z,3.60
2023-04-17T11:56:55.407Z,3.00
2023-04-17T11:57:55.392Z,3.00
2023-04-17T11:58:55.363Z,2.80
2023-04-17T11:59:55.335Z,3.40
2023-04-17T12:00:55.307Z,3.30
2023-04-17T12:01:55.309Z,2.90
2023-04-17T12:02:55.383Z,3.10
2023-04-17T12:03:55.421Z,3.40
2023-04-17T12:04:55.364Z,3.00
2023-04-17T12:05:55.264Z,4.10
2023-04-17T12:06:55.155Z,2.80
2023-04-17T12:07:55.131Z,3.60
2023-04-17T12:08:55.104Z,3.40
2023-04-17T12:09:55.079Z,3.40
2023-04-17T12:10:55.053Z,2.90
2023-04-17T12:11:55.030Z,3.80
2023-04-17T12:12:55.009Z,3.30
2023-04-17T12:13:54.982Z,3.30
2023-04-17T12:14:54.958Z,2.80
2023-04-17T12:15:54.929Z,3.00
2023-04-17T12:16:54.901Z,3.00
2023-04-17T12:17:54.960Z,3.40
2023-04-17T12:18:54.847Z,2.80
2023-04-17T12:19:54.842Z,2.90
2023-04-17T12:20:54.798Z,3.00
2023-04-17T12:21:54.770Z,2.80
2023-04-17T12:22:54.747Z,3.20
2023-04-17T12:23:54.718Z,3.20
2023-04-17T12:24:54.691Z,3.00
2023-04-17T12:25:54.670Z,3.00
2023-04-17T12:26:54.789Z,3.00
2023-04-17T12:27:54.620Z,2.80
2023-04-17T12:28:54.592Z,3.60
2023-04-17T12:29:54.571Z,3.20
2023-04-17T12:30:54.539Z,3.50
2023-04-17T12:31:54.575Z,2.80
2023-04-17T12:32:54.505Z,3.10
2023-04-17T12:33:54.500Z,2.90
2023-04-17T12:34:54.438Z,3.90
2023-04-17T12:35:54.513Z,2.60
2023-04-17T12:36:54.393Z,3.20
2023-04-17T12:37:54.358Z,3.50
2023-04-17T12:38:54.338Z,2.70
2023-04-17T12:39:54.309Z,3.00
2023-04-17T12:40:54.295Z,3.30
2023-04-17T12:41:54.263Z,2.90
2023-04-17T12:42:54.245Z,3.10
2023-04-17T12:43:54.206Z,3.10
2023-04-17T12:44:54.184Z,3.10
2023-04-17T12:45:54.180Z,3.70
2023-04-17T12:46:54.130Z,2.80
2023-04-17T12:47:54.123Z,3.80
2023-04-17T12:48:54.090Z,3.70
2023-04-17T12:49:54.057Z,3.70
2023-04-17T12:50:54.041Z,3.70
2023-04-17T12:51:54.020Z,4.00
2023-04-17T12:52:53.977Z,2.70
2023-04-17T12:53:53.955Z,2.60
2023-04-17T12:54:53.927Z,2.60
2023-04-17T12:55:53.904Z,3.00
2023-04-17T12:56:53.877Z,3.50
2023-04-17T12:57:53.862Z,2.90
2023-04-17T12:58:53.828Z,2.80
2023-04-17T12:59:53.803Z,2.90
2023-04-17T13:00:53.827Z,3.00
2023-04-17T13:01:53.828Z,2.90
2023-04-17T13:02:53.827Z,3.00
2023-04-17T13:03:54.028Z,2.80
2023-04-17T13:04:53.820Z,2.90
2023-04-17T13:05:53.650Z,2.70
2023-04-17T13:06:53.625Z,2.60
2023-04-17T13:07:53.624Z,2.90